createdAt,value
2018-06-24T00:00:21.805Z,22
2018-06-24T00:01:12.226Z,22
2018-06-24T00:02:01.928Z,22
2018-06-24T00:02:52.018Z,21.9
2018-06-24T00:03:42.615Z,21.9
2018-06-24T00:04:32.383Z,21.9
2018-06-24T00:05:22.180Z,21.9
2018-06-24T00:06:12.557Z,21.9
2018-06-24T00:07:02.913Z,21.9
2018-06-24T00:07:52.146Z,21.9
2018-06-24T00:08:42.726Z,21.9
2018-06-24T00:09:32.252Z,21.9
2018-06-24T00:10:22.826Z,21.9
2018-06-24T00:11:13.143Z,21.9
2018-06-24T00:12:02.393Z,21.9
2018-06-24T00:12:52.988Z,21.9
2018-06-24T00:13:43.431Z,21.9
2018-06-24T00:14:32.623Z,21.9
2018-06-24T00:15:23.273Z,21.9
2018-06-24T00:16:13.001Z,21.9
2018-06-24T00:17:02.821Z,21.9
2018-06-24T00:17:53.127Z,21.9
2018-06-24T00:18:42.356Z,21.9
2018-06-24T00:19:32.692Z,21.9
2018-06-24T00:20:23.308Z,21.8
2018-06-24T00:21:13.079Z,21.9
2018-06-24T00:22:03.130Z,21.9
2018-06-24T00:22:52.647Z,21.8
2018-06-24T00:23:43.346Z,21.8
2018-06-24T00:24:33.598Z,21.8
2018-06-24T00:25:23.783Z,21.9
2018-06-24T00:26:13.503Z,21.9
2018-06-24T00:27:04.105Z,21.9
2018-06-24T00:27:54.130Z,21.9
2018-06-24T00:28:43.663Z,21.9
2018-06-24T00:29:34.079Z,21.9
2018-06-24T00:30:24.064Z,21.9
2018-06-24T00:31:13.706Z,21.9
2018-06-24T00:32:03.494Z,21.9
2018-06-24T00:32:53.241Z,21.9
2018-06-24T00:33:44.116Z,21.9
2018-06-24T00:34:34.154Z,21.9
2018-06-24T00:35:24.211Z,21.9
2018-06-24T00:36:14.574Z,21.9
2018-06-24T00:37:04.993Z,21.8
2018-06-24T00:37:54.921Z,21.8
2018-06-24T00:38:44.949Z,21.8
2018-06-24T00:39:35.017Z,21.8
2018-06-24T00:40:24.867Z,21.8
2018-06-24T00:41:15.150Z,21.8
2018-06-24T00:42:04.919Z,21.8
2018-06-24T00:42:55.319Z,21.8
2018-06-24T00:43:44.794Z,21.8
2018-06-24T00:44:34.583Z,21.8
2018-06-24T00:45:25.427Z,21.8
2018-06-24T00:46:15.309Z,21.8
2018-06-24T00:47:05.877Z,21.8
2018-06-24T00:47:55.935Z,21.8
2018-06-24T00:48:45.979Z,21.8
2018-06-24T00:49:35.828Z,21.8
2018-06-24T00:50:25.560Z,21.8
2018-06-24T00:51:15.593Z,21.8
2018-06-24T00:52:05.689Z,21.8
2018-06-24T00:52:56.278Z,21.8
2018-06-24T00:53:46.158Z,21.8
2018-06-24T00:54:35.614Z,21.8
2018-06-24T00:55:26.174Z,21.8
2018-06-24T00:56:16.330Z,21.8
2018-06-24T00:57:06.319Z,21.8
2018-06-24T00:57:56.433Z,21.8
2018-06-24T00:58:46.196Z,21.8
2018-06-24T00:59:36.204Z,21.8
2018-06-24T01:00:26.661Z,21.8
2018-06-24T01:01:16.934Z,21.8
2018-06-24T01:02:06.737Z,21.8
2018-06-24T01:02:56.001Z,21.8
2018-06-24T01:03:46.632Z,21.8
2018-06-24T01:04:36.385Z,21.8
2018-06-24T01:05:26.237Z,21.8
2018-06-24T01:06:15.996Z,21.8
2018-06-24T01:07:06.002Z,21.8
2018-06-24T01:07:57.211Z,21.8
2018-06-24T01:08:47.190Z,21.8
2018-06-24T01:09:37.000Z,21.8
2018-06-24T01:10:26.539Z,21.8
2018-06-24T01:11:16.909Z,21.8
2018-06-24T01:12:06.419Z,21.8
2018-06-24T01:12:57.568Z,21.8
2018-06-24T01:13:47.060Z,21.8
2018-06-24T01:14:37.351Z,21.7
2018-06-24T01:15:27.725Z,21.8
2018-06-24T01:16:17.209Z,21.7
2018-06-24T01:17:07.304Z,21.7
2018-06-24T01:17:57.645Z,21.7
2018-06-24T01:18:48.037Z,21.7
2018-06-24T01:19:38.079Z,21.7
2018-06-24T01:20:27.586Z,21.7
2018-06-24T01:21:18.132Z,21.6
2018-06-24T01:22:08.281Z,21.6
2018-06-24T01:22:58.259Z,21.6
2018-06-24T01:23:48.579Z,21.6
2018-06-24T01:24:38.396Z,21.6
2018-06-24T01:25:28.166Z,21.6
2018-06-24T01:26:18.217Z,21.6
2018-06-24T01:27:07.981Z,21.6
2018-06-24T01:27:58.424Z,21.6
2018-06-24T01:28:47.596Z,21.6
2018-06-24T01:29:38.794Z,21.6
2018-06-24T01:30:27.983Z,21.6
2018-06-24T01:31:17.815Z,21.6
2018-06-24T01:32:08.126Z,21.6
2018-06-24T01:32:58.801Z,21.6
2018-06-24T01:33:48.259Z,21.6
2018-06-24T01:34:39.436Z,21.6
2018-06-24T01:35:28.114Z,21.6
2018-06-24T01:36:18.736Z,21.6
2018-06-24T01:37:08.604Z,21.6
2018-06-24T01:37:58.593Z,21.6
2018-06-24T01:38:49.716Z,21.5
2018-06-24T01:39:39.242Z,21.5
2018-06-24T01:40:29.908Z,21.5
2018-06-24T01:41:19.962Z,21.5
2018-06-24T01:42:09.681Z,21.5
2018-06-24T01:43:00.025Z,21.5
2018-06-24T01:43:50.143Z,21.5
2018-06-24T01:44:39.904Z,21.5
2018-06-24T01:45:29.663Z,21.5
2018-06-24T01:46:20.287Z,21.5
2018-06-24T01:47:09.832Z,21.4
2018-06-24T01:48:00.396Z,21.5
2018-06-24T01:48:50.469Z,21.5
2018-06-24T01:49:40.027Z,21.4
2018-06-24T01:50:29.768Z,21.5
2018-06-24T01:51:20.276Z,21.5
2018-06-24T01:52:10.188Z,21.4
2018-06-24T01:52:59.650Z,21.4
2018-06-24T01:53:49.524Z,21.4
2018-06-24T01:54:40.131Z,21.4
2018-06-24T01:55:30.191Z,21.4
2018-06-24T01:56:21.115Z,21.4
2018-06-24T01:57:10.013Z,21.4
2018-06-24T01:58:00.626Z,21.4
2018-06-24T01:58:50.677Z,21.4
2018-06-24T01:59:40.499Z,21.4
2018-06-24T02:00:30.585Z,21.4
2018-06-24T02:01:20.278Z,21.4
2018-06-24T02:02:10.955Z,21.4
2018-06-24T02:03:01.645Z,21.4
2018-06-24T02:03:50.752Z,21.4
2018-06-24T02:04:40.865Z,21.4
2018-06-24T02:05:30.608Z,21.4
2018-06-24T02:06:21.559Z,21.4
2018-06-24T02:07:11.593Z,21.3
2018-06-24T02:08:00.791Z,21.4
2018-06-24T02:08:51.992Z,21.3
2018-06-24T02:09:41.177Z,21.3
2018-06-24T02:10:31.271Z,21.4
2018-06-24T02:11:21.041Z,21.3
2018-06-24T02:12:11.467Z,21.4
2018-06-24T02:13:01.513Z,21.4
2018-06-24T02:13:52.389Z,21.4
2018-06-24T02:14:42.471Z,21.4
2018-06-24T02:15:31.921Z,21.4
2018-06-24T02:16:22.556Z,21.4
2018-06-24T02:17:12.312Z,21.4
2018-06-24T02:18:02.068Z,21.4
2018-06-24T02:18:52.374Z,21.4
2018-06-24T02:19:42.513Z,21.4
2018-06-24T02:20:32.536Z,21.3
2018-06-24T02:21:22.078Z,21.4
2018-06-24T02:22:12.703Z,21.3
2018-06-24T02:23:02.258Z,21.3
2018-06-24T02:23:53.093Z,21.3
2018-06-24T02:24:42.343Z,21.3
2018-06-24T02:25:32.491Z,21.3
2018-06-24T02:26:22.774Z,21.3
2018-06-24T02:27:12.789Z,21.3
2018-06-24T02:28:02.879Z,21.3
2018-06-24T02:28:52.924Z,21.3
2018-06-24T02:29:42.734Z,21.3
2018-06-24T02:30:33.112Z,21.3
2018-06-24T02:31:23.398Z,21.3
2018-06-24T02:32:12.951Z,21.3
2018-06-24T02:33:03.250Z,21.3
2018-06-24T02:33:53.613Z,21.3
2018-06-24T02:34:42.529Z,21.2
2018-06-24T02:35:33.746Z,21.2
2018-06-24T02:36:23.243Z,21.2
2018-06-24T02:37:13.832Z,21.2
2018-06-24T02:38:03.049Z,21.2
2018-06-24T02:38:53.409Z,21.2
2018-06-24T02:39:43.697Z,21.2
2018-06-24T02:40:33.799Z,21.2
2018-06-24T02:41:23.288Z,21.2
2018-06-24T02:42:14.457Z,21.2
2018-06-24T02:43:04.565Z,21.2
2018-06-24T02:43:54.309Z,21.2
2018-06-24T02:44:44.075Z,21.3
2018-06-24T02:45:34.471Z,21.2
2018-06-24T02:46:24.814Z,21.2
2018-06-24T02:47:14.269Z,21.2
2018-06-24T02:48:04.108Z,21.2
2018-06-24T02:48:54.686Z,21.2
2018-06-24T02:49:45.051Z,21.2
2018-06-24T02:52:14.979Z,21.2
2018-06-24T02:59:45.282Z,21.1
2018-06-24T03:03:54.965Z,21.2
2018-06-24T03:04:45.061Z,21.2
2018-06-24T03:06:25.249Z,21.2
2018-06-24T03:07:15.533Z,21.2
2018-06-24T03:08:06.218Z,21.2
2018-06-24T03:09:46.010Z,21.2
2018-06-24T03:10:36.478Z,21.2
2018-06-24T03:11:25.861Z,21.2
2018-06-24T03:12:15.903Z,21.2
2018-06-24T03:13:05.989Z,21.2
2018-06-24T03:13:56.048Z,21.2
2018-06-24T03:14:46.150Z,21.2
2018-06-24T03:15:36.754Z,21.2
2018-06-24T03:16:25.956Z,21.2
2018-06-24T03:17:16.007Z,21.2
2018-06-24T03:18:57.166Z,21.2
2018-06-24T03:19:47.329Z,21.2
2018-06-24T03:20:37.088Z,21.2
2018-06-24T03:21:26.622Z,21.2
2018-06-24T03:22:17.180Z,21.2
2018-06-24T03:23:06.471Z,21.2
2018-06-24T03:24:46.864Z,21.2
2018-06-24T03:25:37.305Z,21.2
2018-06-24T03:26:26.645Z,21.2
2018-06-24T03:27:17.517Z,21.2
2018-06-24T03:28:07.607Z,21.2
2018-06-24T03:28:57.614Z,21.2
2018-06-24T03:29:46.596Z,21.2
2018-06-24T03:30:37.709Z,21.2
2018-06-24T03:31:27.607Z,21.2
2018-06-24T03:33:08.300Z,21.2
2018-06-24T03:33:57.999Z,21.2
2018-06-24T03:34:48.073Z,21.2
2018-06-24T03:35:38.500Z,21.2
2018-06-24T03:36:28.326Z,21.2
2018-06-24T03:38:58.447Z,21.2
2018-06-24T03:39:48.741Z,21.2
2018-06-24T03:45:39.170Z,21.2
2018-06-24T03:47:18.353Z,21.2
2018-06-24T03:48:08.892Z,21.2
2018-06-24T03:48:58.931Z,21.2
2018-06-24T03:49:48.745Z,21.2
2018-06-24T03:50:39.599Z,21.2
2018-06-24T03:52:19.163Z,21.2
2018-06-24T03:53:09.254Z,21.2
2018-06-24T04:03:09.935Z,21.2
2018-06-24T04:04:00.568Z,21.2
2018-06-24T04:04:51.628Z,21.2
2018-06-24T04:05:39.029Z,21.2
2018-06-24T04:06:29.432Z,21.2
2018-06-24T04:07:20.865Z,21.2
2018-06-24T04:08:10.979Z,21.2
2018-06-24T04:09:00.421Z,21.2
2018-06-24T04:09:50.743Z,21.2
2018-06-24T04:12:20.363Z,21.2
2018-06-24T04:13:09.581Z,21.2
2018-06-24T04:14:01.047Z,21.2
2018-06-24T04:14:50.566Z,21.2
2018-06-24T04:15:40.907Z,21.2
2018-06-24T04:16:30.978Z,21.2
2018-06-24T04:17:20.690Z,21.3
2018-06-24T04:18:10.841Z,21.3
2018-06-24T04:19:00.814Z,21.3
2018-06-24T04:19:51.217Z,21.3
2018-06-24T04:20:41.268Z,21.3
2018-06-24T04:21:31.928Z,21.3
2018-06-24T04:22:21.755Z,21.4
2018-06-24T04:23:11.178Z,21.4
2018-06-24T04:24:01.170Z,21.4
2018-06-24T04:24:51.004Z,21.4
2018-06-24T04:25:42.803Z,21.4
2018-06-24T04:26:30.639Z,21.4
2018-06-24T04:27:21.825Z,21.4
2018-06-24T04:28:11.637Z,21.4
2018-06-24T04:29:01.938Z,21.4
2018-06-24T04:29:51.994Z,21.3
2018-06-24T04:30:42.073Z,21.3
2018-06-24T04:31:31.573Z,21.3
2018-06-24T04:32:22.239Z,21.3
2018-06-24T04:33:11.720Z,21.3
2018-06-24T04:34:01.757Z,21.3
2018-06-24T04:34:52.066Z,21.3
2018-06-24T04:35:42.991Z,21.3
2018-06-24T04:36:32.149Z,21.3
2018-06-24T04:37:21.974Z,21.3
2018-06-24T04:38:12.579Z,21.3
2018-06-24T04:39:03.268Z,21.3
2018-06-24T04:39:53.298Z,21.3
2018-06-24T04:40:42.489Z,21.3
2018-06-24T04:41:32.805Z,21.3
2018-06-24T04:42:22.617Z,21.4
2018-06-24T04:43:12.433Z,21.4
2018-06-24T04:44:02.997Z,21.4
2018-06-24T04:44:53.641Z,21.4
2018-06-24T04:45:43.403Z,21.4
2018-06-24T04:46:33.468Z,21.4
2018-06-24T04:47:23.795Z,21.4
2018-06-24T04:48:13.694Z,21.4
2018-06-24T04:49:03.750Z,21.4
2018-06-24T04:49:54.003Z,21.4
2018-06-24T04:50:44.041Z,21.4
2018-06-24T04:51:33.766Z,21.4
2018-06-24T04:52:23.387Z,21.4
2018-06-24T04:53:13.764Z,21.4
2018-06-24T04:54:03.516Z,21.4
2018-06-24T04:54:53.059Z,21.4
2018-06-24T04:55:44.151Z,21.4
2018-06-24T04:56:34.027Z,21.4
2018-06-24T04:57:23.997Z,21.4
2018-06-24T04:58:13.484Z,21.4
2018-06-24T04:59:04.679Z,21.4
2018-06-24T04:59:53.615Z,21.4
2018-06-24T05:00:44.536Z,21.4
2018-06-24T05:01:33.807Z,21.4
2018-06-24T05:02:23.859Z,21.4
2018-06-24T05:03:13.573Z,21.4
2018-06-24T05:04:04.517Z,21.4
2018-06-24T05:04:54.844Z,21.4
2018-06-24T05:05:45.019Z,21.4
2018-06-24T05:06:35.816Z,21.3
2018-06-24T05:07:25.300Z,21.3
2018-06-24T05:08:15.072Z,21.3
2018-06-24T05:09:04.619Z,21.4
2018-06-24T05:09:54.104Z,21.4
2018-06-24T05:10:45.564Z,21.4
2018-06-24T05:11:35.371Z,21.5
2018-06-24T05:12:25.643Z,21.5
2018-06-24T05:13:15.469Z,21.6
2018-06-24T05:14:04.762Z,21.6
2018-06-24T05:14:55.988Z,21.6
2018-06-24T05:15:45.963Z,21.6
2018-06-24T05:16:35.426Z,21.6
2018-06-24T05:17:25.229Z,21.6
2018-06-24T05:18:14.732Z,21.6
2018-06-24T05:19:04.807Z,21.6
2018-06-24T05:19:55.634Z,21.6
2018-06-24T05:20:46.311Z,21.6
2018-06-24T05:21:36.399Z,21.7
2018-06-24T05:22:25.312Z,21.6
2018-06-24T05:23:16.013Z,21.7
2018-06-24T05:24:06.295Z,21.7
2018-06-24T05:24:56.045Z,21.7
2018-06-24T05:25:46.672Z,21.8
2018-06-24T05:26:36.495Z,21.8
2018-06-24T05:27:26.272Z,21.7
2018-06-24T05:28:16.383Z,21.7
2018-06-24T05:29:05.868Z,21.7
2018-06-24T05:29:56.257Z,21.7
2018-06-24T05:30:46.309Z,21.7
2018-06-24T05:31:35.538Z,21.7
2018-06-24T05:32:26.385Z,21.8
2018-06-24T05:33:16.781Z,21.8
2018-06-24T05:34:06.572Z,21.8
2018-06-24T05:34:55.489Z,21.8
2018-06-24T05:35:47.407Z,21.8
2018-06-24T05:36:37.458Z,21.8
2018-06-24T05:37:26.728Z,21.8
2018-06-24T05:38:17.345Z,21.8
2018-06-24T05:39:07.090Z,21.8
2018-06-24T05:39:57.297Z,21.8
2018-06-24T05:40:47.535Z,21.8
2018-06-24T05:41:36.988Z,21.8
2018-06-24T05:42:27.961Z,21.8
2018-06-24T05:43:18.308Z,21.8
2018-06-24T05:44:07.216Z,21.8
2018-06-24T05:44:57.575Z,21.8
2018-06-24T05:45:48.283Z,21.9
2018-06-24T05:46:37.463Z,21.9
2018-06-24T05:47:28.028Z,21.9
2018-06-24T05:48:18.097Z,21.9
2018-06-24T05:49:08.178Z,21.9
2018-06-24T05:49:57.702Z,21.8
2018-06-24T05:50:48.608Z,21.8
2018-06-24T05:51:38.345Z,21.8
2018-06-24T05:52:27.693Z,21.8
2018-06-24T05:53:17.645Z,21.8
2018-06-24T05:54:08.536Z,21.8
2018-06-24T05:54:58.615Z,21.8
2018-06-24T05:55:48.075Z,21.8
2018-06-24T05:56:38.708Z,21.8
2018-06-24T05:57:28.268Z,21.8
2018-06-24T05:58:18.590Z,21.8
2018-06-24T05:59:08.608Z,21.8
2018-06-24T05:59:58.718Z,21.8
2018-06-24T06:00:49.028Z,21.8
2018-06-24T06:01:39.317Z,21.9
2018-06-24T06:02:28.881Z,21.8
2018-06-24T06:03:18.985Z,21.9
2018-06-24T06:04:09.061Z,21.8
2018-06-24T06:04:59.660Z,21.8
2018-06-24T06:05:48.959Z,21.8
2018-06-24T06:06:39.505Z,21.8
2018-06-24T06:07:29.558Z,21.8
2018-06-24T06:08:19.624Z,21.8
2018-06-24T06:09:09.965Z,21.8
2018-06-24T06:09:59.602Z,21.8
2018-06-24T06:10:49.676Z,21.8
2018-06-24T06:11:39.631Z,21.8
2018-06-24T06:12:29.924Z,21.8
2018-06-24T06:13:20.066Z,21.8
2018-06-24T06:14:10.088Z,21.9
2018-06-24T06:15:00.189Z,21.9
2018-06-24T06:15:50.171Z,21.9
2018-06-24T06:16:39.976Z,21.9
2018-06-24T06:17:30.513Z,22
2018-06-24T06:18:20.650Z,22
2018-06-24T06:19:10.345Z,22
2018-06-24T06:20:00.481Z,22
2018-06-24T06:20:50.543Z,22
2018-06-24T06:21:40.532Z,22
2018-06-24T06:22:30.958Z,22
2018-06-24T06:23:20.408Z,22
2018-06-24T06:24:10.898Z,22.1
2018-06-24T06:25:00.572Z,22.1
2018-06-24T06:25:51.177Z,22.1
2018-06-24T06:26:41.233Z,22.1
2018-06-24T06:27:31.020Z,22.1
2018-06-24T06:28:21.058Z,22.1
2018-06-24T06:29:10.879Z,22
2018-06-24T06:30:01.050Z,22.1
2018-06-24T06:30:51.265Z,22.1
2018-06-24T06:31:41.614Z,22.1
2018-06-24T06:32:31.122Z,22.1
2018-06-24T06:33:20.967Z,22.1
2018-06-24T06:34:10.968Z,22.1
2018-06-24T06:35:01.308Z,22.2
2018-06-24T06:35:51.361Z,22.2
2018-06-24T06:36:41.599Z,22.3
2018-06-24T06:37:31.525Z,22.3
2018-06-24T06:38:22.150Z,22.3
2018-06-24T06:39:10.858Z,22.3
2018-06-24T06:40:02.268Z,22.3
2018-06-24T06:40:52.100Z,22.3
2018-06-24T06:41:41.240Z,22.3
2018-06-24T06:42:31.898Z,22.3
2018-06-24T06:43:22.185Z,22.4
2018-06-24T06:44:11.733Z,22.3
2018-06-24T06:45:04.566Z,22.4
2018-06-24T06:45:54.141Z,22.4
2018-06-24T06:46:41.638Z,22.5
2018-06-24T06:47:32.592Z,22.5
2018-06-24T06:48:22.327Z,22.5
2018-06-24T06:49:12.948Z,22.5
2018-06-24T06:50:01.314Z,22.5
2018-06-24T06:50:53.096Z,22.5
2018-06-24T06:51:42.577Z,22.5
2018-06-24T06:52:32.408Z,22.5
2018-06-24T06:53:21.768Z,22.5
2018-06-24T06:54:12.508Z,22.6
2018-06-24T06:55:03.180Z,22.5
2018-06-24T06:55:52.369Z,22.5
2018-06-24T06:56:42.104Z,22.5
2018-06-24T06:57:32.357Z,22.5
2018-06-24T06:58:23.080Z,22.5
2018-06-24T06:59:12.588Z,22.5
2018-06-24T07:00:03.703Z,22.6
2018-06-24T07:00:53.283Z,22.6
2018-06-24T07:01:43.139Z,22.6
2018-06-24T07:02:33.662Z,22.6
2018-06-24T07:03:24.554Z,22.6
2018-06-24T07:04:13.844Z,22.6
2018-06-24T07:05:03.026Z,22.6
2018-06-24T07:05:54.860Z,22.6
2018-06-24T07:06:43.728Z,22.6
2018-06-24T07:07:34.362Z,22.6
2018-06-24T07:08:24.142Z,22.5
2018-06-24T07:09:13.904Z,22.4
2018-06-24T07:10:03.663Z,22.5
2018-06-24T07:10:53.770Z,22.5
2018-06-24T07:11:43.950Z,22.5
2018-06-24T07:12:33.378Z,22.6
2018-06-24T07:13:23.953Z,22.6
2018-06-24T07:14:13.785Z,22.6
2018-06-24T07:15:04.354Z,22.7
2018-06-24T07:15:54.474Z,22.8
2018-06-24T07:16:44.230Z,22.8
2018-06-24T07:17:34.559Z,22.8
2018-06-24T07:18:23.637Z,22.7
2018-06-24T07:19:14.538Z,22.8
2018-06-24T07:20:04.464Z,22.8
2018-06-24T07:20:54.632Z,22.8
2018-06-24T07:21:45.214Z,22.8
2018-06-24T07:22:34.454Z,22.8
2018-06-24T07:23:23.323Z,22.8
2018-06-24T07:24:14.303Z,22.8
2018-06-24T07:25:04.574Z,22.8
2018-06-24T07:25:55.463Z,22.8
2018-06-24T07:26:44.693Z,22.8
2018-06-24T07:27:35.363Z,22.8
2018-06-24T07:28:25.895Z,22.8
2018-06-24T07:29:15.132Z,22.8
2018-06-24T07:30:05.847Z,22.8
2018-06-24T07:30:56.104Z,22.8
2018-06-24T07:31:45.332Z,22.8
2018-06-24T07:32:35.693Z,22.8
2018-06-24T07:33:26.964Z,22.8
2018-06-24T07:34:15.795Z,22.8
2018-06-24T07:35:05.888Z,22.9
2018-06-24T07:35:56.509Z,22.8
2018-06-24T07:36:45.975Z,22.8
2018-06-24T07:37:36.362Z,22.9
2018-06-24T07:38:26.100Z,22.9
2018-06-24T07:39:17.595Z,22.8
2018-06-24T07:40:06.282Z,22.8
2018-06-24T07:40:55.857Z,22.9
2018-06-24T07:41:45.916Z,22.9
2018-06-24T07:42:35.616Z,22.9
2018-06-24T07:43:25.780Z,22.9
2018-06-24T07:44:16.806Z,22.8
2018-06-24T07:45:06.407Z,22.9
2018-06-24T07:45:56.449Z,22.9
2018-06-24T07:46:46.042Z,22.9
2018-06-24T07:47:36.630Z,22.9
2018-06-24T07:48:26.194Z,22.9
2018-06-24T07:49:16.918Z,22.9
2018-06-24T07:50:06.781Z,22.9
2018-06-24T07:50:57.046Z,22.9
2018-06-24T07:51:46.854Z,22.9
2018-06-24T07:52:37.734Z,22.9
2018-06-24T07:53:27.221Z,22.9
2018-06-24T07:54:17.850Z,22.9
2018-06-24T07:55:07.379Z,22.9
2018-06-24T07:55:57.692Z,22.9
2018-06-24T07:56:47.492Z,22.8
2018-06-24T07:57:37.941Z,22.8
2018-06-24T07:58:27.882Z,22.8
2018-06-24T07:59:18.252Z,22.8
2018-06-24T08:00:07.760Z,22.8
2018-06-24T08:00:58.085Z,22.9
2018-06-24T08:01:47.874Z,22.8
2018-06-24T08:02:37.652Z,22.8
2018-06-24T08:03:29.645Z,22.8
2018-06-24T08:04:18.149Z,22.9
2018-06-24T08:05:08.406Z,22.9
2018-06-24T08:05:58.458Z,22.9
2018-06-24T08:06:48.248Z,22.9
2018-06-24T08:07:38.589Z,22.9
2018-06-24T08:08:28.934Z,22.9
2018-06-24T08:09:17.338Z,22.9
2018-06-24T08:10:08.530Z,22.9
2018-06-24T08:10:58.839Z,22.9
2018-06-24T08:11:48.967Z,22.9
2018-06-24T08:12:39.254Z,22.9
2018-06-24T08:13:28.910Z,23
2018-06-24T08:14:18.811Z,23
2018-06-24T08:15:09.458Z,23
2018-06-24T08:15:58.371Z,23
2018-06-24T08:16:49.043Z,23
2018-06-24T08:17:39.103Z,23
2018-06-24T08:18:29.662Z,22.9
2018-06-24T08:19:19.194Z,22.9
2018-06-24T08:20:09.312Z,23
2018-06-24T08:20:59.594Z,23
2018-06-24T08:21:49.932Z,23
2018-06-24T08:22:39.546Z,23
2018-06-24T08:23:29.238Z,23
2018-06-24T08:24:19.888Z,23
2018-06-24T08:25:09.124Z,23
2018-06-24T08:25:59.705Z,23.1
2018-06-24T08:26:50.036Z,23.1
2018-06-24T08:27:39.361Z,23.1
2018-06-24T08:28:30.154Z,23.1
2018-06-24T08:29:18.652Z,23.1
2018-06-24T08:30:10.346Z,23.1
2018-06-24T08:31:00.663Z,23.1
2018-06-24T08:31:50.997Z,23.1
2018-06-24T08:32:40.240Z,23.1
2018-06-24T08:33:30.271Z,23.1
2018-06-24T08:34:20.600Z,23.1
2018-06-24T08:35:09.922Z,23.1
2018-06-24T08:35:59.396Z,23.1
2018-06-24T08:36:50.816Z,23.1
2018-06-24T08:37:40.122Z,23.1
2018-06-24T08:38:30.663Z,23.1
2018-06-24T08:39:21.084Z,23.1
2018-06-24T08:40:10.792Z,23.1
2018-06-24T08:40:59.578Z,23.1
2018-06-24T08:41:51.465Z,23.1
2018-06-24T08:42:41.544Z,23.1
2018-06-24T08:43:31.095Z,23.1
2018-06-24T08:44:21.622Z,23.2
2018-06-24T08:45:11.744Z,23.1
2018-06-24T08:46:00.237Z,23.2
2018-06-24T08:46:50.879Z,23.2
2018-06-24T08:47:41.487Z,23.2
2018-06-24T08:48:30.138Z,23.3
2018-06-24T08:49:21.334Z,23.3
2018-06-24T08:50:11.167Z,23.3
2018-06-24T08:51:01.657Z,23.3
2018-06-24T08:51:50.227Z,23.3
2018-06-24T08:52:41.263Z,23.2
2018-06-24T08:53:30.470Z,23.2
2018-06-24T08:54:22.386Z,23.3
2018-06-24T08:55:11.837Z,23.3
2018-06-24T08:56:00.702Z,23.3
2018-06-24T08:56:52.157Z,23.3
2018-06-24T08:57:40.863Z,23.3
2018-06-24T08:58:31.167Z,23.3
2018-06-24T08:59:22.103Z,23.3
2018-06-24T09:00:11.638Z,23.3
2018-06-24T09:01:02.483Z,23.3
2018-06-24T09:01:52.032Z,23.3
2018-06-24T09:02:42.027Z,23.3
2018-06-24T09:03:31.447Z,23.3
2018-06-24T09:04:21.868Z,23.4
2018-06-24T09:05:12.779Z,23.3
2018-06-24T09:06:02.612Z,23.3
2018-06-24T09:06:51.275Z,23.2
2018-06-24T09:07:42.245Z,23.2
2018-06-24T09:08:33.055Z,23.3
2018-06-24T09:09:22.819Z,23.3
2018-06-24T09:10:13.139Z,23.3
2018-06-24T09:11:02.952Z,23.3
2018-06-24T09:11:52.697Z,23.1
2018-06-24T09:12:43.102Z,23.2
2018-06-24T09:13:32.599Z,23.2
2018-06-24T09:14:22.818Z,23.1
